Time;durP1;ratioP1;P1;durP2;ratioP2;P2;SDS_P1;SDS_P2;PMS_P1;PMS_P2;Temp;Humidity;BMP_temperature;BMP_pressure;BME280_temperature;BME280_humidity;BME280_pressure;Samples;Min_cycle;Max_cycle;Signal;HPM_P1;HPM_P2
2022/10/17 00:01:31;;;;;;;10.93;6.50;;;;;;;16.69;100.00;100714.81;8337718;28;20033;-52
2022/10/17 00:05:32;;;;;;;9.13;6.85;;;;;;;16.71;100.00;100729.97;8331974;28;20456;-49
2022/10/17 00:09:33;;;;;;;13.88;7.63;;;;;;;16.68;100.00;100726.75;8340770;28;20448;-52
2022/10/17 00:13:34;;;;;;;13.18;6.93;;;;;;;16.71;100.00;100729.97;8333128;28;20510;-51
2022/10/17 00:17:35;;;;;;;9.30;6.50;;;;;;;16.72;100.00;100728.13;8353008;28;20140;-52
2022/10/17 00:21:35;;;;;;;7.63;6.93;;;;;;;16.62;100.00;100730.19;8354685;28;20062;-50
2022/10/17 00:25:36;;;;;;;8.98;6.70;;;;;;;16.59;100.00;100714.16;8341461;28;20044;-54
2022/10/17 00:29:37;;;;;;;11.23;7.03;;;;;;;16.57;100.00;100724.38;8336431;28;20416;-49
2022/10/17 00:33:38;;;;;;;11.68;7.10;;;;;;;16.54;100.00;100722.00;8325235;28;20049;-50
2022/10/17 00:37:38;;;;;;;11.20;7.47;;;;;;;16.53;100.00;100726.59;8323936;28;20037;-50
2022/10/17 00:41:39;;;;;;;12.77;7.03;;;;;;;16.59;100.00;100730.53;8323079;28;20041;-53
2022/10/17 00:45:40;;;;;;;12.70;7.55;;;;;;;16.66;100.00;100731.53;8323130;28;20445;-49
2022/10/17 00:49:41;;;;;;;11.15;6.78;;;;;;;16.75;100.00;100728.63;8324767;28;20075;-50
2022/10/17 00:53:42;;;;;;;11.30;6.95;;;;;;;16.80;100.00;100728.94;8353610;28;20041;-49
2022/10/17 00:57:44;;;;;;;13.27;6.78;;;;;;;16.83;100.00;100733.19;8326239;28;20494;-52
2022/10/17 01:02:07;;;;;;;7.45;6.03;;;;;;;16.80;100.00;100737.13;8351609;28;20513;-50
2022/10/17 01:06:08;;;;;;;12.73;6.45;;;;;;;16.76;100.00;100732.19;8340653;28;20560;-52
2022/10/17 01:10:10;;;;;;;10.32;6.68;;;;;;;16.83;100.00;100733.19;8338646;28;20411;-52
2022/10/17 01:14:25;;;;;;;9.60;6.00;;;;;;;16.83;100.00;100733.19;8328958;28;20103;-49
2022/10/17 01:23:27;;;;;;;12.90;6.95;;;;;;;16.89;100.00;100727.00;8432527;27;20402;-50
2022/10/17 01:27:55;;;;;;;10.40;6.38;;;;;;;16.95;100.00;100723.59;8409865;28;20037;-50
2022/10/17 01:32:12;;;;;;;9.55;5.75;;;;;;;17.01;100.00;100726.47;8386173;28;20033;-52
2022/10/17 01:36:26;;;;;;;10.30;6.13;;;;;;;17.10;100.00;100710.88;8384613;28;20048;-49
2022/10/17 01:40:36;;;;;;;9.50;5.85;;;;;;;17.14;100.00;100704.06;8385553;28;20051;-51
2022/10/17 01:44:49;;;;;;;9.25;6.30;;;;;;;17.19;100.00;100712.56;8385622;28;20068;-49
2022/10/17 01:48:52;;;;;;;8.23;5.65;;;;;;;17.14;100.00;100709.53;8384616;28;20036;-50
2022/10/17 01:52:58;;;;;;;9.07;5.78;;;;;;;17.14;100.00;100709.53;8381821;28;20041;-50
2022/10/17 01:57:06;;;;;;;10.15;5.57;;;;;;;17.13;100.00;100714.13;8381016;28;20037;-52
2022/10/17 02:01:10;;;;;;;8.63;5.60;;;;;;;17.16;100.00;100700.09;8378694;28;20041;-55
2022/10/17 02:05:11;;;;;;;;;;;;;;;17.20;100.00;100703.34;8377017;28;20845;-53
2022/10/17 02:09:21;;;;;;;7.97;5.40;;;;;;;17.25;100.00;100706.38;8378017;28;20293;-51
2022/10/17 02:13:48;;;;;;;8.00;5.60;;;;;;;17.26;100.00;100698.00;8384284;28;20033;-53
2022/10/17 02:18:09;;;;;;;10.00;5.82;;;;;;;17.30;100.00;100701.25;8383516;28;20033;-53
2022/10/17 02:22:30;;;;;;;8.02;5.55;;;;;;;17.43;100.00;100698.78;8365638;28;20106;-54
2022/10/17 02:26:41;;;;;;;11.43;5.20;;;;;;;17.51;100.00;100690.56;8370726;28;20032;-53
2022/10/17 02:30:53;;;;;;;10.07;5.45;;;;;;;17.59;100.00;100693.22;8376516;28;20043;-54
2022/10/17 02:34:57;;;;;;;10.57;5.82;;;;;;;17.66;100.00;100694.22;8357087;28;20041;-53
2022/10/17 02:39:02;;;;;;;5.72;4.95;;;;;;;17.72;100.00;100695.34;8354366;28;20158;-51
2022/10/17 02:43:03;;;;;;;9.50;5.18;;;;;;;17.75;100.00;100693.09;8354096;28;20067;-54
2022/10/17 02:47:16;;;;;;;8.13;4.97;;;;;;;17.77;100.00;100691.03;8349661;28;20542;-51
2022/10/17 02:51:56;;;;;;;9.43;5.30;;;;;;;17.64;100.00;100690.78;8349990;28;20461;-55
2022/10/17 02:56:01;;;;;;;7.82;5.57;;;;;;;17.48;100.00;100688.19;8351158;28;20191;-49
2022/10/17 03:00:10;;;;;;;10.00;6.25;;;;;;;17.44;100.00;100689.56;8347296;28;20517;-51
2022/10/17 03:04:13;;;;;;;9.48;6.30;;;;;;;17.32;100.00;100686.34;8353246;28;20042;-53
2022/10/17 03:08:16;;;;;;;12.43;5.68;;;;;;;17.20;100.00;100693.25;8357405;28;20032;-50
2022/10/17 03:12:16;;;;;;;9.77;6.50;;;;;;;17.19;100.00;100685.22;8353496;28;20047;-49
2022/10/17 03:16:17;;;;;;;7.65;6.28;;;;;;;17.14;100.00;100693.13;8357353;28;20394;-50
2022/10/17 03:20:18;;;;;;;12.48;6.38;;;;;;;17.19;100.00;100694.28;8356390;28;20068;-50
2022/10/17 03:24:19;;;;;;;8.85;6.40;;;;;;;17.21;100.00;100694.97;8356050;28;20132;-51
2022/10/17 03:28:20;;;;;;;8.27;6.13;;;;;;;17.24;100.00;100705.53;8357211;28;20029;-51
2022/10/17 03:32:21;;;;;;;10.70;6.15;;;;;;;17.28;100.00;100706.03;8355021;28;20067;-49
2022/10/17 03:36:22;;;;;;;7.78;6.00;;;;;;;17.37;100.00;100715.88;8356220;28;20041;-50
2022/10/17 03:40:23;;;;;;;11.00;6.38;;;;;;;17.56;100.00;100704.50;8352256;28;20033;-49
2022/10/17 03:44:24;;;;;;;9.52;6.18;;;;;;;17.70;100.00;100713.81;8357315;28;20502;-49
2022/10/17 03:48:27;;;;;;;8.85;5.60;;;;;;;17.87;100.00;100710.78;8356477;28;20079;-51
2022/10/17 03:52:28;;;;;;;9.25;5.70;;;;;;;17.90;100.00;100713.16;8340295;28;20399;-49
2022/10/17 03:56:29;;;;;;;6.95;5.93;;;;;;;17.91;100.00;100720.34;8356382;28;20061;-49
2022/10/17 04:00:35;;;;;;;12.68;5.60;;;;;;;17.98;100.00;100720.44;8351165;28;20033;-52
2022/10/17 04:04:36;;;;;;;9.52;4.95;;;;;;;17.87;100.00;100718.16;8354375;28;20032;-49
2022/10/17 04:08:37;;;;;;;8.60;5.50;;;;;;;17.88;100.00;100709.78;8354284;28;20075;-49
2022/10/17 04:12:42;;;;;;;9.27;5.78;;;;;;;17.82;100.00;100715.97;8355644;28;20234;-51
2022/10/17 04:16:43;;;;;;;7.95;5.40;;;;;;;17.81;100.00;100730.66;8355461;28;20044;-49
2022/10/17 04:20:50;;;;;;;7.03;5.50;;;;;;;17.76;100.00;100726.78;8355191;28;20068;-50
2022/10/17 04:24:52;;;;;;;9.55;5.53;;;;;;;17.64;100.00;100729.06;8353956;28;20163;-49
2022/10/17 04:29:00;;;;;;;7.78;5.75;;;;;;;17.63;100.00;100735.59;8347876;28;20039;-49
2022/10/17 04:33:01;;;;;;;6.63;5.10;;;;;;;17.81;100.00;100719.72;8354733;28;20036;-49
2022/10/17 04:37:03;;;;;;;12.05;5.45;;;;;;;17.84;100.00;100732.19;8351928;28;20032;-50
2022/10/17 04:41:07;;;;;;;7.93;5.32;;;;;;;17.59;100.00;100728.75;8355186;28;20102;-50
2022/10/17 04:45:08;;;;;;;10.77;5.47;;;;;;;17.41;100.00;100739.09;8353226;28;20035;-49
2022/10/17 04:49:10;;;;;;;8.98;5.90;;;;;;;17.32;100.00;100734.69;8353909;28;20032;-52
2022/10/17 04:53:13;;;;;;;6.32;5.63;;;;;;;17.24;100.00;100732.00;8352820;28;20045;-49
2022/10/17 04:57:14;;;;;;;12.18;6.03;;;;;;;17.19;100.00;100735.28;8352457;28;20045;-52
2022/10/17 05:01:21;;;;;;;12.77;6.07;;;;;;;17.20;100.00;100738.88;8354159;28;20064;-52
2022/10/17 05:05:25;;;;;;;9.40;5.78;;;;;;;17.21;100.00;100738.69;8353088;28;20502;-50
2022/10/17 05:09:28;;;;;;;10.25;6.25;;;;;;;17.23;100.00;100746.72;8354205;28;20073;-49
2022/10/17 05:13:29;;;;;;;11.80;6.65;;;;;;;17.34;100.00;100744.44;8353254;28;20040;-49
2022/10/17 05:17:30;;;;;;;14.30;6.03;;;;;;;17.34;100.00;100744.44;8352360;28;20039;-49
2022/10/17 05:21:32;;;;;;;8.50;5.93;;;;;;;17.39;100.00;100754.81;8350309;28;20045;-49
2022/10/17 05:25:32;;;;;;;8.90;6.50;;;;;;;17.56;100.00;100764.66;8347781;28;20067;-52
2022/10/17 05:29:34;;;;;;;11.88;5.90;;;;;;;17.78;100.00;100758.38;8336592;28;20036;-49
2022/10/17 05:33:45;;;;;;;12.30;5.60;;;;;;;17.99;100.00;100766.78;8341074;28;20821;-49
2022/10/17 05:37:47;;;;;;;5.93;4.82;;;;;;;18.03;100.00;100768.13;8349905;28;20048;-50
2022/10/17 05:41:51;;;;;;;8.43;5.00;;;;;;;18.02;100.00;100760.94;8354181;28;20091;-50
2022/10/17 05:45:52;;;;;;;7.97;4.70;;;;;;;18.07;100.00;100755.78;8348577;28;20044;-52
2022/10/17 05:49:54;;;;;;;7.40;4.80;;;;;;;18.00;100.00;100757.56;8350398;28;20417;-49
2022/10/17 05:54:06;;;;;;;6.00;4.97;;;;;;;17.95;100.00;100756.38;8348203;28;20525;-49
2022/10/17 05:58:08;;;;;;;8.90;5.07;;;;;;;17.83;100.00;100766.91;8347064;28;20705;-49
2022/10/17 06:02:13;;;;;;;7.32;4.88;;;;;;;17.68;100.00;100768.69;8352262;28;20051;-50
2022/10/17 06:06:16;;;;;;;7.28;5.70;;;;;;;17.58;100.00;100776.28;8353876;28;20252;-52
2022/10/17 06:10:18;;;;;;;6.45;5.43;;;;;;;17.45;100.00;100786.94;8357706;28;20053;-50
2022/10/17 06:14:19;;;;;;;8.73;5.63;;;;;;;17.47;100.00;100787.59;8359491;28;20498;-51
2022/10/17 06:18:23;;;;;;;8.60;5.03;;;;;;;17.52;100.00;100796.13;8350444;28;20045;-49
2022/10/17 06:22:24;;;;;;;7.63;5.20;;;;;;;17.60;100.00;100787.91;8343292;28;20041;-50
2022/10/17 06:26:24;;;;;;;8.40;5.38;;;;;;;17.62;100.00;100799.50;8347992;28;20101;-49
2022/10/17 06:30:25;;;;;;;9.93;5.40;;;;;;;17.70;100.00;100810.41;8344243;28;20033;-50
2022/10/17 06:34:26;;;;;;;7.10;5.18;;;;;;;17.79;100.00;100820.28;8358235;28;20111;-52
2022/10/17 06:38:28;;;;;;;7.53;4.53;;;;;;;17.87;100.00;100816.63;8339032;28;20041;-50
2022/10/17 06:42:31;;;;;;;10.52;5.10;;;;;;;18.00;100.00;100817.75;8358323;28;20042;-51
2022/10/17 06:46:51;;;;;;;10.32;4.88;;;;;;;18.14;100.00;100829.81;8358171;28;20126;-49
2022/10/17 06:50:52;;;;;;;11.90;4.78;;;;;;;18.37;100.00;100836.16;8354295;28;20498;-52
2022/10/17 06:54:56;;;;;;;8.95;4.80;;;;;;;18.47;100.00;100843.09;8344162;28;20037;-51
2022/10/17 06:59:06;;;;;;;8.35;4.78;;;;;;;18.70;100.00;100843.06;8325255;28;20172;-51
2022/10/17 07:03:09;;;;;;;10.43;5.20;;;;;;;18.95;100.00;100844.53;8320684;28;20033;-49
2022/10/17 07:07:09;;;;;;;10.98;4.53;;;;;;;19.06;100.00;100844.91;8343214;28;20095;-49
2022/10/17 07:11:14;;;;;;;5.70;3.78;;;;;;;19.19;100.00;100845.13;8339073;28;20369;-50
2022/10/17 07:15:16;;;;;;;6.15;4.65;;;;;;;19.36;100.00;100830.22;8357871;28;20099;-50
2022/10/17 07:19:17;;;;;;;7.05;4.15;;;;;;;19.25;100.00;100827.91;8354535;28;20044;-51
2022/10/17 07:23:17;;;;;;;7.68;4.68;;;;;;;19.21;100.00;100837.56;8357042;28;20167;-53
2022/10/17 07:27:18;;;;;;;14.75;4.93;;;;;;;19.31;100.00;100851.03;8355439;28;20060;-53
2022/10/17 07:31:22;;;;;;;5.65;3.95;;;;;;;19.57;98.02;100842.34;8351213;28;20095;-53
2022/10/17 07:35:22;;;;;;;5.13;3.78;;;;;;;19.82;96.21;100849.19;8338113;28;20037;-49
2022/10/17 07:39:24;;;;;;;9.35;3.60;;;;;;;20.02;93.91;100836.56;8350246;28;20407;-50
2022/10/17 07:43:26;;;;;;;5.45;3.47;;;;;;;20.25;92.65;100853.75;8334603;28;20037;-53
2022/10/17 07:47:29;;;;;;;7.97;3.33;;;;;;;20.35;91.18;100862.53;8332822;28;20040;-52
2022/10/17 07:51:30;;;;;;;9.25;3.60;;;;;;;20.50;90.07;100855.06;8356129;28;20057;-51
2022/10/17 07:55:31;;;;;;;6.53;2.88;;;;;;;20.66;90.10;100863.03;8354064;28;20033;-50
2022/10/17 07:59:33;;;;;;;5.45;3.10;;;;;;;20.61;89.75;100871.00;8351714;28;20067;-50
2022/10/17 08:03:34;;;;;;;10.85;3.20;;;;;;;20.77;88.87;100876.25;8355275;28;20438;-50
2022/10/17 08:07:34;;;;;;;7.35;3.28;;;;;;;20.64;89.93;100876.97;8355261;28;20060;-49
2022/10/17 08:11:36;;;;;;;4.03;3.10;;;;;;;20.59;89.50;100878.63;8353858;28;20044;-50
2022/10/17 08:15:37;;;;;;;6.68;3.38;;;;;;;20.52;89.75;100894.19;8353780;28;20134;-50
2022/10/17 08:19:39;;;;;;;4.75;3.08;;;;;;;20.50;89.58;100885.28;8355164;28;20037;-50
2022/10/17 08:23:40;;;;;;;5.50;3.42;;;;;;;20.53;88.75;100868.41;8354052;28;20029;-51
2022/10/17 08:27:40;;;;;;;7.88;3.30;;;;;;;20.75;89.22;100894.84;8355001;28;20037;-51
2022/10/17 08:31:56;;;;;;;5.90;3.67;;;;;;;20.74;89.37;100926.13;8354853;28;20397;-50
2022/10/17 08:35:58;;;;;;;7.75;3.50;;;;;;;20.89;88.84;100929.66;8351844;28;20029;-50
2022/10/17 08:39:59;;;;;;;6.53;3.47;;;;;;;21.13;88.39;100937.50;8338285;28;20120;-52
2022/10/17 08:44:25;;;;;;;6.65;3.13;;;;;;;21.29;87.16;100926.22;8352249;28;20033;-49
2022/10/17 08:48:30;;;;;;;8.15;3.67;;;;;;;21.32;87.14;100942.34;8354041;28;20383;-49
2022/10/17 08:52:43;;;;;;;5.10;3.33;;;;;;;21.32;87.21;100947.84;8343277;28;20029;-49
2022/10/17 08:56:49;;;;;;;7.22;3.50;;;;;;;22.51;82.76;100934.56;8353120;28;20604;-50
2022/10/17 09:01:04;;;;;;;8.70;3.25;;;;;;;22.55;81.17;100942.22;8336485;28;20049;-52
2022/10/17 09:05:36;;;;;;;5.18;3.00;;;;;;;22.44;82.87;100951.06;8353292;28;20087;-50
2022/10/17 09:14:38;;;;;;;5.25;3.35;;;;;;;22.13;83.16;100970.00;8440023;27;20121;-53
2022/10/17 09:18:44;;;;;;;3.45;2.78;;;;;;;22.28;82.83;100969.84;8415977;28;20067;-49
2022/10/17 09:23:08;;;;;;;5.32;3.15;;;;;;;22.15;83.54;100980.81;8415842;28;20044;-52
2022/10/17 09:27:15;;;;;;;;;;;;;;;21.98;84.88;100983.03;8403024;28;20045;-50
2022/10/17 09:31:22;;;;;;;9.15;3.00;;;;;;;21.89;85.21;100977.91;8384757;28;19920;-50
2022/10/17 09:35:26;;;;;;;5.65;3.03;;;;;;;21.95;85.15;100988.97;8412922;28;20042;-52
2022/10/17 09:39:31;;;;;;;6.07;3.28;;;;;;;22.16;84.31;100985.25;8408236;28;20032;-51
2022/10/17 09:43:32;;;;;;;5.00;2.80;;;;;;;22.30;82.73;100987.88;8414692;28;20120;-50
2022/10/17 09:47:41;;;;;;;4.85;2.90;;;;;;;22.44;82.54;100994.28;8415002;28;20036;-49
2022/10/17 09:51:42;;;;;;;5.13;2.92;;;;;;;22.57;82.24;100997.97;8415286;28;20085;-53
2022/10/17 09:55:47;;;;;;;8.43;2.90;;;;;;;23.24;78.82;100997.13;8407472;28;20115;-50
2022/10/17 10:00:05;;;;;;;10.20;2.92;;;;;;;24.74;73.06;101014.28;8392393;28;20071;-52
2022/10/17 10:04:25;;;;;;;6.28;2.25;;;;;;;24.55;72.40;101004.97;8444603;27;20132;-50
2022/10/17 10:08:31;;;;;;;5.35;2.50;;;;;;;25.75;69.48;101019.56;8412602;28;20069;-52
2022/10/17 10:12:36;;;;;;;8.38;2.30;;;;;;;26.54;66.01;101023.22;8411116;28;20498;-48
2022/10/17 10:16:42;;;;;;;4.18;2.17;;;;;;;24.90;70.10;101022.06;8416125;28;20563;-50
2022/10/17 10:20:45;;;;;;;6.95;2.53;;;;;;;24.09;73.98;101025.56;8417142;28;20055;-49
2022/10/17 10:25:07;;;;;;;3.00;2.17;;;;;;;23.61;75.47;101026.84;8442235;28;20039;-50
2022/10/17 10:29:31;;;;;;;8.40;2.80;;;;;;;23.30;76.45;101030.25;8431150;28;20044;-48
2022/10/17 10:33:34;;;;;;;7.70;2.70;;;;;;;23.13;77.96;101057.34;8418534;28;20044;-48
2022/10/17 10:37:40;;;;;;;5.30;2.45;;;;;;;22.98;78.84;101053.91;8415769;28;20111;-48
2022/10/17 10:41:47;;;;;;;5.28;2.50;;;;;;;22.96;79.10;101058.78;8413891;28;20318;-52
2022/10/17 10:45:48;;;;;;;10.82;2.47;;;;;;;22.96;77.74;101053.25;8413608;28;20040;-48
2022/10/17 10:49:52;;;;;;;7.20;2.53;;;;;;;22.93;78.15;101061.94;8438619;28;20209;-48
2022/10/17 10:54:13;;;;;;;;;;;;;;;22.90;77.92;101045.81;8432654;28;20050;-49
2022/10/17 10:58:40;;;;;;;5.90;2.60;;;;;;;22.83;78.14;101017.38;8417725;28;20403;-48
2022/10/17 11:02:58;;;;;;;6.03;2.50;;;;;;;22.67;79.31;101012.25;8428414;28;20040;-48
2022/10/17 11:07:09;;;;;;;6.53;2.65;;;;;;;22.68;79.24;101030.47;8423923;28;20040;-50
2022/10/17 11:11:28;;;;;;;9.18;2.90;;;;;;;22.69;79.66;101043.19;8422521;28;20112;-52
2022/10/17 11:15:37;;;;;;;5.93;2.72;;;;;;;22.77;79.68;101051.28;8393662;28;20064;-51
2022/10/17 11:19:50;;;;;;;5.93;2.97;;;;;;;22.68;79.16;101070.97;8386622;28;20123;-52
2022/10/17 11:23:58;;;;;;;6.82;2.60;;;;;;;22.62;79.51;101067.13;8423354;28;20101;-50
2022/10/17 11:28:00;;;;;;;6.00;2.42;;;;;;;22.55;80.84;101063.50;8403935;28;20113;-51
2022/10/17 11:32:08;;;;;;;3.55;2.72;;;;;;;22.47;81.00;101071.91;8411256;28;20097;-49
2022/10/17 11:36:09;;;;;;;8.05;2.90;;;;;;;22.47;81.50;101065.53;8391579;28;20372;-51
2022/10/17 11:40:20;;;;;;;3.10;2.20;;;;;;;22.48;80.61;101068.09;8405344;28;20036;-51
2022/10/17 11:44:30;;;;;;;9.25;2.90;;;;;;;22.45;81.77;101090.53;8403610;28;20040;-50
2022/10/17 11:48:38;;;;;;;7.07;3.47;;;;;;;22.47;81.17;101088.44;8395873;28;20047;-49
2022/10/17 11:52:49;;;;;;;5.55;2.80;;;;;;;22.47;80.28;101104.97;8417291;28;20036;-53
2022/10/17 11:57:17;;;;;;;6.82;2.75;;;;;;;22.41;80.83;101100.28;8407903;28;20195;-55
2022/10/17 12:01:55;;;;;;;10.73;3.10;;;;;;;22.29;82.21;101107.41;8387690;28;20072;-51
2022/10/17 12:14:45;;;;;;;9.48;3.60;;;;;;;22.33;83.30;101103.22;8468266;27;20121;-51
2022/10/17 12:18:51;;;;;;;12.15;3.53;;;;;;;22.24;83.94;101109.94;8384357;28;20036;-52
2022/10/17 12:22:55;;;;;;;13.63;3.13;;;;;;;22.17;85.41;101108.19;8382142;28;20043;-54
2022/10/17 12:26:55;;;;;;;14.20;3.50;;;;;;;22.13;85.91;101110.47;8379566;28;20124;-52
2022/10/17 12:35:29;;;;;;;9.15;3.13;;;;;;;22.15;84.95;101121.28;8447971;27;20125;-51
2022/10/17 12:39:35;;;;;;;9.75;3.67;;;;;;;22.13;86.25;101118.75;8416896;28;20120;-53
2022/10/17 12:43:43;;;;;;;5.85;2.55;;;;;;;22.16;86.29;101126.59;8415576;28;20422;-54
2022/10/17 12:47:44;;;;;;;4.43;2.15;;;;;;;22.22;84.99;101127.69;8417911;28;20040;-54
2022/10/17 12:52:15;;;;;;;8.25;2.65;;;;;;;22.42;83.29;101128.69;8414204;28;20041;-53
2022/10/17 12:56:19;;;;;;;4.88;1.90;;;;;;;22.38;84.11;101133.75;8415349;28;20048;-53
2022/10/17 13:00:28;;;;;;;11.30;3.00;;;;;;;22.40;84.31;101137.16;8415388;28;20036;-51
2022/10/17 13:04:30;;;;;;;6.30;2.38;;;;;;;22.46;83.81;101136.34;8411820;28;20036;-55
2022/10/17 13:08:35;;;;;;;6.53;2.30;;;;;;;22.46;84.31;101147.38;8414224;28;20365;-52
2022/10/17 13:12:37;;;;;;;4.15;1.80;;;;;;;22.52;84.81;101152.13;8414880;28;20204;-52
2022/10/17 13:16:50;;;;;;;8.15;2.20;;;;;;;22.52;84.68;101157.63;8415138;28;20111;-54
2022/10/17 13:21:02;;;;;;;8.02;2.42;;;;;;;22.59;84.46;101158.50;8412735;28;20144;-52
2022/10/17 13:25:08;;;;;;;7.68;2.10;;;;;;;22.70;83.51;101166.22;8410618;28;20139;-53
2022/10/17 13:29:11;;;;;;;8.32;1.98;;;;;;;22.66;83.83;101170.44;8419551;28;20033;-51
2022/10/17 13:33:27;;;;;;;7.32;2.25;;;;;;;22.66;83.48;101164.09;8412808;28;20081;-52
2022/10/17 13:37:29;;;;;;;5.22;2.30;;;;;;;22.73;83.18;101176.84;8412139;28;20581;-55
2022/10/17 13:41:33;;;;;;;5.72;2.53;;;;;;;22.79;83.26;101172.41;8402072;28;20111;-55
2022/10/17 13:45:37;;;;;;;8.25;2.13;;;;;;;22.78;82.87;101174.31;8400507;28;20107;-54
2022/10/17 13:49:41;;;;;;;10.07;2.50;;;;;;;22.95;83.23;101181.22;8393596;28;20044;-54
2022/10/17 13:53:43;;;;;;;10.55;2.75;;;;;;;23.12;82.55;101177.03;8392793;28;20093;-54
2022/10/17 13:57:43;;;;;;;4.68;2.05;;;;;;;23.28;81.02;101172.25;8391605;28;20051;-55
2022/10/17 14:01:48;;;;;;;9.77;2.70;;;;;;;23.39;80.85;101174.41;8380198;28;20048;-53
2022/10/17 14:06:16;;;;;;;3.67;1.65;;;;;;;23.54;80.14;101180.63;8409612;28;20504;-55
2022/10/17 14:10:21;;;;;;;7.60;2.33;;;;;;;23.50;79.30;101182.94;8414310;28;20039;-55
2022/10/17 14:14:24;;;;;;;7.13;1.98;;;;;;;23.48;79.04;101182.28;8400152;28;20032;-52
2022/10/17 14:18:29;;;;;;;8.15;2.10;;;;;;;23.47;79.07;101186.09;8402931;28;20047;-53
2022/10/17 14:22:34;;;;;;;5.95;1.77;;;;;;;23.42;77.23;101193.31;8392928;28;20028;-53
2022/10/17 14:26:47;;;;;;;6.68;1.88;;;;;;;23.37;77.67;101212.41;8394803;28;20060;-54
2022/10/17 14:30:53;;;;;;;5.57;1.70;;;;;;;23.21;77.53;101208.91;8400920;28;20148;-54
2022/10/17 14:34:56;;;;;;;5.78;2.20;;;;;;;23.30;77.38;101217.06;8408830;28;20063;-53
2022/10/17 14:38:57;;;;;;;5.30;1.60;;;;;;;23.27;77.99;101228.50;8394391;28;20035;-54
2022/10/17 14:43:02;;;;;;;5.72;1.77;;;;;;;23.19;77.99;101227.59;8411690;28;20086;-51
2022/10/17 14:47:06;;;;;;;7.60;2.00;;;;;;;23.18;78.04;101225.88;8408451;28;20032;-53
2022/10/17 14:51:10;;;;;;;5.63;1.80;;;;;;;23.17;77.86;101234.34;8416799;28;20055;-54
2022/10/17 14:55:22;;;;;;;5.97;1.98;;;;;;;23.05;78.25;101225.81;8396439;28;20041;-53
2022/10/17 14:59:24;;;;;;;4.80;1.65;;;;;;;22.98;78.61;101235.97;8406486;28;20380;-52
2022/10/17 15:03:26;;;;;;;5.78;2.10;;;;;;;22.85;78.73;101230.38;8413441;28;20036;-51
2022/10/17 15:07:26;;;;;;;6.97;2.22;;;;;;;22.82;79.00;101236.31;8404531;28;20032;-54
2022/10/17 15:11:27;;;;;;;8.77;2.38;;;;;;;22.72;80.29;101248.75;8418467;28;20028;-51
2022/10/17 15:15:29;;;;;;;4.35;1.98;;;;;;;22.59;80.76;101246.72;8403982;28;20047;-52
2022/10/17 15:19:30;;;;;;;8.02;1.95;;;;;;;22.52;81.32;101233.94;8414715;28;20446;-51
2022/10/17 15:23:30;;;;;;;4.50;2.15;;;;;;;22.47;81.45;101236.41;8406739;28;20083;-53
2022/10/17 15:27:31;;;;;;;6.85;2.03;;;;;;;22.45;81.51;101244.03;8390217;28;20039;-51
2022/10/17 15:31:32;;;;;;;11.82;2.33;;;;;;;22.38;82.36;101276.22;8404630;28;20538;-55
2022/10/17 15:35:33;;;;;;;5.47;2.55;;;;;;;22.25;83.70;101276.94;8407037;28;20032;-53
2022/10/17 15:39:33;;;;;;;5.78;2.28;;;;;;;22.16;84.06;101285.53;8397874;28;20494;-53
2022/10/17 15:43:34;;;;;;;8.02;2.60;;;;;;;22.05;84.83;101297.09;8408272;28;20040;-53
2022/10/17 15:47:34;;;;;;;4.50;2.28;;;;;;;21.91;86.23;101290.56;8408122;28;20101;-53
2022/10/17 15:51:35;;;;;;;8.88;2.83;;;;;;;21.84;86.78;101300.66;8413161;28;20044;-53
2022/10/17 15:55:36;;;;;;;13.98;3.03;;;;;;;21.85;86.63;101310.63;8406186;28;20115;-54
2022/10/17 15:59:37;;;;;;;6.30;2.50;;;;;;;21.81;87.56;101317.59;8395435;28;20043;-54
2022/10/17 16:03:37;;;;;;;7.15;3.10;;;;;;;21.47;92.70;101331.06;8406808;28;20040;-54
2022/10/17 16:07:38;;;;;;;14.50;4.20;;;;;;;20.99;98.83;101343.50;8400860;28;20397;-51
2022/10/17 16:11:42;;;;;;;13.18;5.30;;;;;;;20.57;100.00;101350.56;8403739;28;20641;-52
2022/10/17 16:15:42;;;;;;;12.87;5.80;;;;;;;20.27;100.00;101355.09;8408542;28;20051;-51
2022/10/17 16:19:43;;;;;;;11.07;5.60;;;;;;;20.09;100.00;101365.50;8399927;28;20037;-54
2022/10/17 16:23:44;;;;;;;10.48;6.30;;;;;;;20.00;100.00;101360.25;8402088;28;20046;-54
2022/10/17 16:27:46;;;;;;;12.60;5.88;;;;;;;19.87;100.00;101365.44;8396056;28;20349;-51
2022/10/17 16:31:47;;;;;;;13.40;5.38;;;;;;;19.71;100.00;101362.78;8403242;28;20040;-52
2022/10/17 16:35:48;;;;;;;12.60;5.30;;;;;;;19.53;100.00;101368.53;8395742;28;20044;-54
2022/10/17 16:39:51;;;;;;;20.35;10.27;;;;;;;19.43;100.00;101373.38;8416098;28;20075;-54
2022/10/17 16:43:54;;;;;;;24.90;13.60;;;;;;;19.34;100.00;101380.75;8416837;28;20070;-53
2022/10/17 16:47:55;;;;;;;9.95;6.65;;;;;;;19.24;100.00;101385.56;8403131;28;20174;-51
2022/10/17 16:51:56;;;;;;;7.82;4.93;;;;;;;19.20;100.00;101365.03;8401552;28;20036;-51
2022/10/17 16:55:59;;;;;;;10.85;5.00;;;;;;;19.15;100.00;101386.63;8418818;28;20039;-53
2022/10/17 17:00:00;;;;;;;10.07;4.80;;;;;;;19.09;100.00;101387.31;8400346;28;20098;-53
2022/10/17 17:04:03;;;;;;;9.93;4.65;;;;;;;19.07;100.00;101383.03;8400731;28;20036;-54
2022/10/17 17:08:04;;;;;;;8.30;5.22;;;;;;;18.98;100.00;101389.56;8400908;28;20057;-53
2022/10/17 17:12:04;;;;;;;7.82;3.78;;;;;;;18.93;100.00;101398.31;8397816;28;20036;-53
2022/10/17 17:16:09;;;;;;;10.43;4.82;;;;;;;18.88;100.00;101395.22;8393140;28;20401;-54
2022/10/17 17:20:09;;;;;;;9.13;4.85;;;;;;;18.86;100.00;101410.13;8414145;28;20074;-52
2022/10/17 17:24:10;;;;;;;8.77;4.32;;;;;;;18.83;100.00;101408.59;8422367;28;20040;-52
2022/10/17 17:28:10;;;;;;;7.07;4.63;;;;;;;18.86;100.00;101408.25;8413231;28;20032;-52
2022/10/17 17:32:13;;;;;;;10.02;5.43;;;;;;;18.85;100.00;101406.53;8412402;28;20032;-54
2022/10/17 17:36:18;;;;;;;7.00;4.72;;;;;;;18.82;100.00;101412.34;8396730;28;20036;-52
2022/10/17 17:40:18;;;;;;;9.88;4.50;;;;;;;18.80;100.00;101408.06;8404319;28;20089;-51
2022/10/17 17:44:19;;;;;;;8.77;5.13;;;;;;;18.75;100.00;101411.34;8410248;28;20044;-51
2022/10/17 17:48:20;;;;;;;9.82;4.88;;;;;;;18.74;100.00;101408.75;8408467;28;20071;-53
2022/10/17 17:52:20;;;;;;;9.85;5.32;;;;;;;18.72;100.00;101422.63;8394491;28;20036;-54
2022/10/17 17:56:23;;;;;;;9.38;5.30;;;;;;;18.67;100.00;101425.00;8402653;28;20468;-52
2022/10/17 18:00:24;;;;;;;13.07;5.20;;;;;;;18.64;100.00;101422.66;8415017;28;20113;-53
2022/10/17 18:04:26;;;;;;;10.70;5.18;;;;;;;18.60;100.00;101424.00;8423080;28;20068;-53
2022/10/17 18:08:27;;;;;;;13.65;4.35;;;;;;;18.55;100.00;101423.66;8398958;28;20040;-50
2022/10/17 18:12:28;;;;;;;9.68;5.15;;;;;;;18.57;100.00;101434.47;8395959;28;20041;-51
2022/10/17 18:16:30;;;;;;;7.75;4.90;;;;;;;18.52;100.00;101436.84;8391706;28;20155;-51
2022/10/17 18:20:31;;;;;;;7.38;4.80;;;;;;;18.46;100.00;101440.25;8398545;28;20459;-54
2022/10/17 18:24:32;;;;;;;9.25;4.65;;;;;;;18.43;100.00;101448.81;8402289;28;20115;-52
2022/10/17 18:28:35;;;;;;;8.52;3.50;;;;;;;18.40;100.00;101440.91;8401003;28;20036;-51
2022/10/17 18:32:36;;;;;;;5.28;2.75;;;;;;;18.42;100.00;101441.63;8392401;28;20140;-53
2022/10/17 18:36:36;;;;;;;5.80;2.33;;;;;;;18.42;100.00;101447.09;8404599;28;20044;-51
2022/10/17 18:40:37;;;;;;;3.00;2.05;;;;;;;18.37;100.00;101455.81;8400569;28;20033;-54
2022/10/17 18:44:37;;;;;;;5.00;1.98;;;;;;;18.26;100.00;101457.94;8405789;28;20028;-54
2022/10/17 18:48:40;;;;;;;5.63;2.35;;;;;;;18.08;100.00;101457.25;8389771;28;20254;-51
2022/10/17 18:52:41;;;;;;;3.17;1.67;;;;;;;17.99;100.00;101460.97;8389818;28;20438;-54
2022/10/17 18:56:42;;;;;;;3.45;0.90;;;;;;;18.02;100.00;101456.00;8397658;28;20040;-53
2022/10/17 19:00:43;;;;;;;3.25;1.00;;;;;;;17.95;100.00;101459.56;8417920;28;20056;-54
2022/10/17 19:04:43;;;;;;;3.03;1.50;;;;;;;17.84;100.00;101463.44;8417972;28;20048;-55
2022/10/17 19:08:44;;;;;;;5.30;1.23;;;;;;;17.84;100.00;101466.19;8417674;28;20075;-51
2022/10/17 19:12:45;;;;;;;7.63;1.40;;;;;;;17.89;100.00;101466.56;8394563;28;20052;-52